Station BLTM2 - 8574680 - Baltimore, MD Image indicating link to RSS feed of recent meteorological observations for station BLTM2


Conditions at BLTM2 as of
(12:30 am EDT)
0430 GMT on 04/15/2024:
     

Click on the graph icon in the table below to see a time series plot of the last five days of that observation.

5-day plot - Wind Direction Wind Direction (WDIR): E ( 80 deg true )
5-day plot - Wind Speed Wind Speed (WSPD): 6.0 kts
5-day plot - Wind Gust Wind Gust (GST): 8.9 kts
5-day plot - Air Temperature Air Temperature (ATMP): 68.7 °F
5-day plot - Water Temperature Water Temperature (WTMP): 58.5 °F
5-day plot - Wind Speed at 10 Meters Wind Speed at 10 meters (WSPD10M): 7.8 kts
5-day plot - Wind Speed at 20 Meters Wind Speed at 20 meters (WSPD20M): 7.8 kts
5-day plot -  Wind Speed, Wind Gust and Atmospheric Pressure Combined plot of Wind Speed, Gust, and Air Pressure
NOS Water Level Observation Network Water Level
Previous observations
TIME
(EDT)
5-day plot - Wind Direction
WDIR
 
5-day plot - Wind Speed
WSPD
kts
5-day plot - Wind Gust
GST
kts
5-day plot - Wave Height
WVHT
ft
5-day plot - Dominant Wave Period
DPD
sec
5-day plot - Average Wave Period
APD
sec
5-day plot - Mean Wave Direction
MWD
 
5-day plot - Atmospheric Pressure
PRES
in
5-day plot - Pressure Tendency
PTDY
in
5-day plot - Air Temperature
ATMP
°F
5-day plot - Water Temperature
WTMP
°F
5-day plot - Dew Point
DEWP
°F
5-day plot - Salinity
SAL
psu
5-day plot - Visibility
VIS
nmi
5-day plot - Tide (above MLLW)
TIDE
ft
2024-04-15 12:24 amENE 6.0 8.0------ 68.4 58.5----
2024-04-15 12:18 amENE 6.0 8.0------ 68.9 58.5----
2024-04-15 12:12 am E 7.0 11.1------ 69.3 58.5----
2024-04-15 12:06 am E 8.9 11.1------ 69.6 58.5----
2024-04-15 12:00 am E 8.9 11.1------ 70.2 58.3----
2024-04-14 11:54 pm E 8.0 8.9------ 71.1 58.3----
2024-04-14 11:48 pm E 7.0 8.9------ 72.7 58.3----
2024-04-14 11:42 pm NE 7.0 9.9------ 73.4 58.3----
2024-04-14 11:36 pmENE 6.0 9.9------ 72.5 58.3----
2024-04-14 11:30 pmNNE 7.0 9.9------ 73.6 58.3----
2024-04-14 11:24 pm E 1.9 2.9------ 72.5 58.1----
2024-04-14 11:18 pmNNE 1.0 2.9------ 73.6 58.1----
2024-04-14 11:12 pm E 1.9 7.0------ 71.8 57.9----
2024-04-14 11:06 pmENE 2.9 4.1------ 74.1 57.9----
2024-04-14 11:00 pmENE 1.0 8.0------ 76.6 57.7----
2024-04-14 10:54 pm E 6.0 9.9------ 77.0 57.7----
2024-04-14 10:48 pmNNE 8.0 12.0------ 73.8 57.6----
2024-04-14 10:42 pm N 8.0 9.9------ 70.9 57.6----
2024-04-14 10:36 pmNNE 1.0 2.9------ 70.7 57.6----
2024-04-14 10:30 pm- 0.0 1.0------ 72.7 57.6----
2024-04-14 10:24 pm- 0.0 2.9------ 72.7 57.6----
2024-04-14 10:18 pmSSE 1.9 1.9------ 72.7 57.6----
2024-04-14 10:12 pm- 0.0 1.0------ 73.2 57.6----
2024-04-14 10:06 pm- 0.0 1.9------ 73.8 57.6----
2024-04-14 10:00 pm SW 1.0 2.9------ 74.3 57.6----
2024-04-14 09:54 pm S 1.0 2.9------ 74.7 57.6----
2024-04-14 09:48 pm S 1.0 4.1------ 75.6 57.6----
2024-04-14 09:42 pm- 0.0 2.9------ 75.0 57.6----
2024-04-14 09:36 pm S 1.9 2.9------ 75.0 57.6----
2024-04-14 09:30 pm- 0.0 4.1------ 75.9 57.4----
2024-04-14 09:24 pm NW 1.0 4.1------ 76.3 57.4----
2024-04-14 09:18 pm W 1.9 5.1------ 76.6 57.4----
2024-04-14 09:12 pmSSW 1.9 8.0------ 77.4 57.4----
2024-04-14 09:06 pmSSW 2.9 6.0------ 77.4 57.4----
2024-04-14 09:00 pm SW 2.9 8.0------ 77.0 57.4----
2024-04-14 08:54 pm SW 1.9 7.0------ 77.2 57.4----
2024-04-14 08:48 pmSSW 2.9 8.0------- 57.4----
2024-04-14 08:42 pmSSW 4.1 11.1------- 57.4----
2024-04-14 08:36 pm S 2.9 8.0------- 57.4----
2024-04-14 08:30 pm--------- 77.4 57.4----
2024-04-14 08:24 pm--------- 77.5 57.4----
2024-04-14 08:18 pmSSW 5.1 12.0------ 78.1 57.4----
2024-04-14 08:12 pm SW 5.1 11.1------ 77.9 57.4----
2024-04-14 08:06 pmSSW 6.0 12.0------ 78.1 57.4----
2024-04-14 08:00 pmSSW 6.0 13.0------ 78.3 57.2----
2024-04-14 07:54 pm SW 5.1 12.0------ 78.1 57.2----
2024-04-14 07:48 pmSSW 5.1 12.0------ 78.1 57.2----
2024-04-14 07:42 pmSSW 6.0 12.0------ 78.3 57.2----
2024-04-14 07:36 pm SW 7.0 12.0------ 78.3 57.2----
2024-04-14 07:30 pm SW 6.0 15.0------ 78.6 57.0----
2024-04-14 07:24 pmSSW 6.0 14.0------ 78.6 57.0----
2024-04-14 07:00 pmSSW 7.0 12.0------- 57.0----
2024-04-14 06:54 pmSSW 5.1 13.0------- 57.0----
2024-04-14 06:48 pmSSW 8.0 14.0------ 79.7 57.0----
2024-04-14 06:42 pmSSW 5.1 12.0------ 79.5 57.0----
2024-04-14 06:36 pmSSW 8.0 15.0------ 79.9 57.0----
2024-04-14 06:30 pm SW 5.1 12.0------ 79.7 57.0----
2024-04-14 06:24 pmSSW 5.1 11.1------ 79.7 57.0----
2024-04-14 06:18 pmSSW 6.0 14.0------ 79.9 57.0----
2024-04-14 06:12 pmSSW 7.0 15.9------ 80.2 56.8----
2024-04-14 06:06 pmSSW 6.0 14.0------ 80.1 56.7----
2024-04-14 06:00 pmSSW 7.0 18.1------ 79.9 56.7----
2024-04-14 05:54 pmSSW 6.0 17.1------ 80.2 56.5----
2024-04-14 05:48 pm SW 7.0 17.1------- 56.5----
2024-04-14 05:42 pmSSW 4.1 8.9------- 56.5----
2024-04-14 05:36 pm SW 7.0 13.0------- 56.3----
2024-04-14 05:30 pmSSW 7.0 15.9------- 56.3----
2024-04-14 05:24 pmSSW 6.0 13.0------- 56.5----
2024-04-14 05:18 pmSSW 8.9 15.0------ 80.1 56.5----
2024-04-14 05:12 pmSSW 5.1 15.0------ 79.9 56.5----
2024-04-14 05:06 pmSSW 7.0 12.0------ 79.5 56.5----
2024-04-14 05:00 pmSSW 6.0 15.0------ 79.2 56.5----
2024-04-14 04:54 pmSSW 7.0 14.0------ 79.2 56.5----
2024-04-14 04:48 pmSSW 7.0 14.0------ 78.8 56.7----
2024-04-14 04:42 pmSSW 5.1 13.0------ 79.7 56.7----
2024-04-14 04:36 pmSSW 7.0 15.0------ 79.7 56.7----
2024-04-14 04:30 pm S 1.9 13.0------ 79.5 56.7----
2024-04-14 04:24 pmSSW 4.1 11.1------ 79.3 56.7----
2024-04-14 04:18 pmSSW 8.0 17.1------ 79.3 56.7----
2024-04-14 04:12 pm SW 4.1 8.9------ 79.0 56.7----
2024-04-14 04:06 pm SW 4.1 12.0------ 79.0 56.8----
2024-04-14 04:00 pmSSW 4.1 8.0------ 78.6 56.8----
2024-04-14 03:54 pm SW 2.9 17.1------ 78.8 56.7----
2024-04-14 03:48 pmSSW 8.9 15.0------ 78.6 56.7----
2024-04-14 03:42 pmSSW 7.0 13.0------ 78.6 56.7----
2024-04-14 03:36 pm S 5.1 14.0------ 78.3 56.7----
2024-04-14 03:30 pmSSW 8.0 14.0------ 78.3 56.7----
2024-04-14 03:24 pmSSW 4.1 11.1------ 78.1 56.7----
2024-04-14 03:18 pmSSW 7.0 12.0------ 77.9 56.7----
2024-04-14 03:12 pmSSW 7.0 17.1------ 77.4 56.7----
2024-04-14 03:06 pm SW 5.1 11.1------ 77.2 56.7----
2024-04-14 03:00 pm S 2.9 8.9------------
2024-04-14 02:54 pm SW 5.1 12.0------------
2024-04-14 02:48 pmSSW 4.1 12.0------ 76.3 56.7----
2024-04-14 02:42 pmSSW 5.1 9.9------ 75.9 56.7----
2024-04-14 02:36 pm S 5.1 9.9------ 75.7 56.5----
2024-04-14 02:30 pmSSW 5.1 11.1------ 75.9 56.5----
2024-04-14 02:24 pmSSW 1.9 8.9------ 75.6 56.5----
2024-04-14 02:18 pm SW 4.1 9.9------ 75.4 56.5----
2024-04-14 02:12 pm S 2.9 12.0------ 75.2 56.5----
2024-04-14 02:06 pmSSW 4.1 9.9------ 74.8 56.5----
2024-04-14 02:00 pm SW 1.9 8.9------ 74.5 56.5----
2024-04-14 01:54 pmSSW 2.9 8.9------ 74.3 56.5----
2024-04-14 01:48 pm S 1.9 8.9------ 74.1 56.5----
2024-04-14 01:42 pmSSW 1.9 6.0------ 73.9 56.5----
2024-04-14 01:36 pm S 4.1 11.1------ 73.9 56.5----
2024-04-14 01:30 pm SW 4.1 8.9------ 73.6 56.5----
2024-04-14 01:24 pm SW 4.1 8.0------ 73.6 56.5----
2024-04-14 01:18 pmSSW 4.1 11.1------ 73.4 56.5----
2024-04-14 01:12 pm S 1.9 8.9------ 73.0 56.5----
2024-04-14 01:06 pmSSW 2.9 8.0------ 72.7 56.5----
2024-04-14 01:00 pmSSW 2.9 12.0------ 72.7 56.7----
2024-04-14 12:54 pmSSW 5.1 11.1------ 73.2 56.7----
2024-04-14 12:48 pmSSW 2.9 8.9------- 56.7----
2024-04-14 12:42 pm S 1.9 11.1------- 56.7----
2024-04-14 12:36 pm S 2.9 8.0------- 56.7----
2024-04-14 12:30 pmSSW 1.9 6.0------- 56.8----
2024-04-14 12:24 pmSSW 5.1 12.0------- 56.8----
2024-04-14 12:18 pmSSW 1.9 8.9------ 71.6 56.8----
2024-04-14 12:12 pm S 2.9 14.0------ 71.2 56.8----
2024-04-14 12:06 pm S 2.9 8.9------ 71.2 56.8----
2024-04-14 12:00 pmSSW 5.1 9.9------ 71.2 56.8----
2024-04-14 11:54 am SW 5.1 11.1------ 70.7 56.8----
2024-04-14 11:48 amSSW 6.0 11.1------ 70.3 56.8----
2024-04-14 11:42 amSSW 4.1 8.9------ 70.3 56.8----
2024-04-14 11:36 amSSW 1.9 8.9------ 70.3 56.8----
2024-04-14 11:30 amSSW 1.9 8.0------- 56.8----
2024-04-14 11:24 amSSW 4.1 9.9------- 56.8----
2024-04-14 11:18 amSSW 5.1 12.0------- 56.8----
2024-04-14 11:12 am SW 4.1 9.9------- 56.8----
2024-04-14 11:06 amSSW 5.1 8.9------- 56.8----
2024-04-14 11:00 amSSW 5.1 11.1------ 68.7 56.7----
2024-04-14 10:54 amSSW 5.1 9.9------ 68.2 56.7----
2024-04-14 10:48 am SW 5.1 8.9------ 67.8 56.7----
2024-04-14 10:42 amSSW 6.0 12.0------ 67.3 56.7----
2024-04-14 10:36 am SW 6.0 9.9------ 67.5 56.7----
2024-04-14 10:30 amSSW 2.9 9.9------ 67.1 56.7----
2024-04-14 10:24 amSSW 6.0 12.0------ 66.4 56.8----
2024-04-14 10:18 amSSW 6.0 11.1------ 66.2 56.8----
2024-04-14 10:12 amSSW 6.0 11.1------ 65.5 56.8----
2024-04-14 10:06 amSSW 5.1 8.9------ 65.1 56.8----
2024-04-14 10:00 am SW 5.1 8.9------- 56.8----
2024-04-14 09:54 am SW 4.1 9.9------- 56.8----
2024-04-14 09:48 amSSW 2.9 7.0------ 64.4 56.8----
2024-04-14 09:42 amSSW 4.1 8.9------ 64.0 56.8----
2024-04-14 09:36 amSSW 4.1 9.9------ 63.5 56.8----
2024-04-14 09:30 am SW 1.0 5.1------- 56.8----
2024-04-14 09:24 amSSW 1.9 6.0------- 57.0----
2024-04-14 09:18 amSSW 2.9 5.1------ 62.1 57.0----
2024-04-14 09:12 am S 1.0 6.0------ 61.0 57.0----
2024-04-14 09:06 am SW 1.9 5.1------ 60.4 57.0----
2024-04-14 09:00 am SW 1.9 5.1------ 59.5 57.0----
2024-04-14 08:54 amSSW 1.0 5.1------ 58.8 57.0----
2024-04-14 08:48 am--------- 58.5 57.0----
2024-04-14 08:42 am--------- 58.1 57.0----
2024-04-14 08:36 am--------- 57.9 57.0----
2024-04-14 08:30 am- 0.0 4.1------- 57.0----
2024-04-14 08:24 amSSW 1.0 5.1------- 57.0----
2024-04-14 08:18 amSSW 1.9 5.1------ 57.0 57.0----
2024-04-14 08:12 amSSW 1.9 5.1------ 57.0 57.0----
2024-04-14 08:06 am S 1.0 5.1------ 56.1 57.0----
2024-04-14 08:00 amSSW 1.9 5.1------- 57.0----
2024-04-14 07:54 amSSW 2.9 6.0------- 56.8----
2024-04-14 07:48 amSSW 2.9 6.0------- 56.8----
2024-04-14 07:42 amSSW 4.1 7.0------- 56.8----
2024-04-14 07:36 amSSW 2.9 6.0------- 56.8----
2024-04-14 07:30 amSSW 4.1 6.0------ 55.0 56.8----
2024-04-14 07:24 amSSW 1.9 4.1------ 55.2 56.7----
2024-04-14 07:18 amSSW 1.9 4.1------------
2024-04-14 07:12 am- 0.0 4.1------------
2024-04-14 07:06 am SW 1.0 4.1------------
2024-04-14 07:00 am- 0.0 2.9------ 53.4 56.5----
2024-04-14 06:54 am- 0.0 2.9------ 52.9 56.5----
2024-04-14 06:48 am- 0.0 2.9------- 56.5----
2024-04-14 06:42 am W 1.0 2.9------- 56.5----
2024-04-14 06:36 am- 0.0 2.9------- 56.5----
2024-04-14 06:30 amWNW 1.0 2.9------ 50.4 56.5----
2024-04-14 06:24 am W 1.0 2.9------ 50.0 56.5----
2024-04-14 06:18 am- 0.0 1.0------ 49.6 56.5----
2024-04-14 06:12 am- 0.0 1.9------ 49.1 56.7----
2024-04-14 06:06 am- 0.0 0.0------ 49.1 56.7----
2024-04-14 06:00 am- 0.0 1.0------ 49.1-----
2024-04-14 05:54 am- 0.0 1.0------ 48.9-----
2024-04-14 05:48 am- 0.0 1.9------ 48.9 56.7----
2024-04-14 05:42 am- 0.0 1.9------ 48.9 56.7----
2024-04-14 05:36 am- 0.0 1.0------ 48.6 56.7----
2024-04-14 05:30 am- 0.0 1.0------- 56.7----
2024-04-14 05:24 am- 0.0 1.9------- 56.7----
2024-04-14 05:18 am- 0.0 1.0------ 49.1 56.7----
2024-04-14 05:12 am- 0.0 0.0------ 49.3 56.7----
2024-04-14 05:06 am- 0.0 1.0------ 49.5 56.7----
2024-04-14 05:00 am- 0.0 1.0------ 49.5 56.7----
2024-04-14 04:54 am- 0.0 1.0------ 49.3 56.8----
2024-04-14 04:48 am- 0.0 1.9------ 49.1 56.8----
2024-04-14 04:42 am- 0.0 1.0------ 49.1 56.8----
2024-04-14 04:36 am- 0.0 1.0------ 49.3 56.8----
2024-04-14 04:30 am- 0.0 0.0------ 49.3 57.0----
2024-04-14 04:24 am- 0.0 1.0------ 49.1 57.0----
2024-04-14 04:18 am- 0.0 0.0------ 48.7 57.0----
2024-04-14 04:12 am- 0.0 0.0------ 49.1 57.0----
2024-04-14 04:06 am- 0.0 1.0------ 49.1 57.0----
2024-04-14 04:00 am- 0.0 1.0------ 49.5 57.2----
2024-04-14 03:54 am- 0.0 0.0------ 50.0 57.2----
2024-04-14 03:48 am- 0.0 1.0------ 50.2 57.2----
2024-04-14 03:42 am- 0.0 1.0------ 50.0 57.2----
2024-04-14 03:36 am- 0.0 1.0------ 50.0 57.2----
2024-04-14 03:30 am- 0.0 1.9------ 50.0 57.2----
2024-04-14 03:24 am- 0.0 1.0------ 50.0 57.2----
2024-04-14 03:18 am- 0.0 1.9------ 49.8 57.2----
2024-04-14 03:12 am- 0.0 1.0------ 50.0 57.0----
2024-04-14 03:06 am- 0.0 0.0------ 50.5 57.0----
2024-04-14 03:00 am- 0.0 1.0------ 50.7 57.0----
2024-04-14 02:54 am- 0.0 1.0------ 50.7 57.0----
2024-04-14 02:48 am- 0.0 1.0------ 50.5 57.0----
2024-04-14 02:42 am- 0.0 1.9------ 51.1 57.0----
2024-04-14 02:36 am- 0.0 1.0------ 51.6 57.0----
2024-04-14 02:30 am- 0.0 1.0------ 51.4 57.0----
2024-04-14 02:24 am- 0.0 1.0------ 51.6 57.0----
2024-04-14 02:18 am- 0.0 1.0------ 51.8 57.0----
2024-04-14 02:12 am- 0.0 1.9------ 52.0 56.8----
2024-04-14 02:06 am- 0.0 1.0------ 52.2 56.8----
2024-04-14 02:00 am- 0.0 1.9------ 52.5 56.8----
2024-04-14 01:54 am- 0.0 1.0------ 52.7 56.8----
2024-04-14 01:48 am S 1.0 1.9------ 53.1 56.8----
2024-04-14 01:42 am- 0.0 2.9------ 53.8 56.8----
2024-04-14 01:36 am W 1.0 2.9------ 54.0 56.8----
2024-04-14 01:30 am- 0.0 1.0------ 54.0 56.8----
2024-04-14 01:24 am- 0.0 1.0------ 54.0 56.8----
2024-04-14 01:18 am- 0.0 1.9------ 54.0 56.8----
2024-04-14 01:12 am- 0.0 2.9------ 54.1 57.0----
2024-04-14 01:06 amSSW 1.9 4.1------ 54.1 57.0----
2024-04-14 01:00 amSSW 1.9 2.9------ 54.3 57.0----
2024-04-14 12:54 am- 0.0 1.9------ 54.7 57.0----